Time,TemperatureF,DewpointF,PressureIn,WindDirection,WindDirectionDegrees,WindSpeedMPH,WindSpeedGustMPH,Humidity,HourlyPrecipIn,Conditions,Clouds,dailyrainin,SolarRadiationWatts/m^2,SoftwareType,DateUTC
2013-06-03 00:12:00,50.7,42.0,29.70,SE,141,4.0,9.0,72,0.00,,,0.00,0,weatherlink.com 1.10,2013-06-03 07:12:00,
2013-06-03 00:27:00,50.4,42.0,29.71,ESE,123,0.0,7.0,72,0.00,,,0.00,0,weatherlink.com 1.10,2013-06-03 07:27:00,
2013-06-03 00:42:00,49.7,41.0,29.70,SE,144,0.0,4.0,72,0.00,,,0.00,0,weatherlink.com 1.10,2013-06-03 07:42:00,
2013-06-03 00:57:00,49.2,41.0,29.71,SE,144,0.0,1.0,72,0.00,,,0.00,0,weatherlink.com 1.10,2013-06-03 07:57:00,
2013-06-03 01:12:00,48.8,40.0,29.71,SE,144,0.0,1.0,73,0.00,,,0.00,0,weatherlink.com 1.10,2013-06-03 08:12:00,
2013-06-03 01:27:00,48.8,40.0,29.71,SSE,163,0.0,3.0,72,0.00,,,0.00,0,weatherlink.com 1.10,2013-06-03 08:27:00,
2013-06-03 01:42:00,48.5,40.0,29.72,WSW,252,1.0,3.0,72,0.00,,,0.00,0,weatherlink.com 1.10,2013-06-03 08:42:00,
2013-06-03 01:57:00,48.5,40.0,29.71,WSW,252,2.0,3.0,72,0.00,,,0.00,0,weatherlink.com 1.10,2013-06-03 08:57:00,
2013-06-03 02:12:00,48.4,40.0,29.71,WSW,252,0.0,2.0,72,0.00,,,0.00,0,weatherlink.com 1.10,2013-06-03 09:12:00,
2013-06-03 02:27:00,48.6,40.0,29.72,NW,304,0.0,4.0,72,0.00,,,0.00,0,weatherlink.com 1.10,2013-06-03 09:27:00,
2013-06-03 02:43:00,48.7,40.0,29.73,NW,319,0.0,3.0,72,0.00,,,0.00,0,weatherlink.com 1.10,2013-06-03 09:43:00,
2013-06-03 02:58:00,48.6,40.0,29.73,NW,319,0.0,1.0,72,0.00,,,0.00,0,weatherlink.com 1.10,2013-06-03 09:58:00,
2013-06-03 03:13:00,48.0,39.0,29.73,NW,319,0.0,2.0,72,0.00,,,0.00,0,weatherlink.com 1.10,2013-06-03 10:13:00,
2013-06-03 03:28:00,48.2,40.0,29.73,NW,319,0.0,3.0,72,0.00,,,0.00,0,weatherlink.com 1.10,2013-06-03 10:28:00,
2013-06-03 03:43:00,48.6,40.0,29.73,NW,319,0.0,2.0,72,0.00,,,0.00,0,weatherlink.com 1.10,2013-06-03 10:43:00,
2013-06-03 03:58:00,48.9,40.0,29.73,NW,319,2.0,3.0,72,0.00,,,0.00,0,weatherlink.com 1.10,2013-06-03 10:58:00,
2013-06-03 04:13:00,49.2,40.0,29.74,WNW,293,1.0,4.0,71,0.00,,,0.00,0,weatherlink.com 1.10,2013-06-03 11:13:00,
2013-06-03 04:28:00,49.5,41.0,29.74,NW,306,0.0,2.0,72,0.00,,,0.00,0,weatherlink.com 1.10,2013-06-03 11:28:00,
2013-06-03 04:43:00,49.4,41.0,29.74,NW,305,1.0,2.0,72,0.00,,,0.00,0,weatherlink.com 1.10,2013-06-03 11:43:00,
2013-06-03 04:58:00,49.6,41.0,29.74,NW,305,1.0,3.0,72,0.00,,,0.00,0,weatherlink.com 1.10,2013-06-03 11:58:00,
2013-06-03 05:13:00,49.9,41.0,29.75,NW,305,0.0,1.0,71,0.00,,,0.00,0,weatherlink.com 1.10,2013-06-03 12:13:00,
2013-06-03 05:28:00,49.9,41.0,29.75,NW,305,1.0,2.0,72,0.00,,,0.00,0,weatherlink.com 1.10,2013-06-03 12:28:00,
2013-06-03 05:43:00,49.9,41.0,29.75,NW,305,1.0,2.0,72,0.00,,,0.00,0,weatherlink.com 1.10,2013-06-03 12:43:00,
2013-06-03 05:58:00,50.0,41.0,29.76,NW,305,1.0,2.0,72,0.00,,,0.00,0,weatherlink.com 1.10,2013-06-03 12:58:00,
2013-06-03 06:13:00,50.2,41.0,29.77,NW,305,1.0,2.0,72,0.00,,,0.00,7,weatherlink.com 1.10,2013-06-03 13:13:00,
2013-06-03 06:28:00,50.2,41.0,29.78,NW,305,1.0,2.0,72,0.00,,,0.00,12,weatherlink.com 1.10,2013-06-03 13:28:00,
2013-06-03 06:43:00,50.1,41.0,29.78,NW,305,1.0,1.0,72,0.00,,,0.00,21,weatherlink.com 1.10,2013-06-03 13:43:00,
2013-06-03 06:58:00,50.2,41.0,29.78,NW,305,0.0,2.0,72,0.00,,,0.00,28,weatherlink.com 1.10,2013-06-03 13:58:00,
2013-06-03 07:13:00,50.3,42.0,29.78,SE,128,0.0,2.0,72,0.00,,,0.00,40,weatherlink.com 1.10,2013-06-03 14:13:00,
2013-06-03 07:28:00,50.5,42.0,29.79,SE,129,1.0,2.0,72,0.00,,,0.00,53,weatherlink.com 1.10,2013-06-03 14:28:00,
2013-06-03 07:43:00,50.7,42.0,29.79,SE,144,1.0,2.0,72,0.00,,,0.00,62,weatherlink.com 1.10,2013-06-03 14:43:00,
2013-06-03 07:58:00,51.5,43.0,29.80,SSE,149,2.0,4.0,72,0.00,,,0.00,67,weatherlink.com 1.10,2013-06-03 14:58:00,
2013-06-03 08:13:00,51.6,43.0,29.80,SSE,161,1.0,6.0,72,0.00,,,0.00,81,weatherlink.com 1.10,2013-06-03 15:13:00,
2013-06-03 08:28:00,51.5,43.0,29.82,SSE,159,3.0,6.0,72,0.00,,,0.00,98,weatherlink.com 1.10,2013-06-03 15:28:00,
2013-06-03 08:43:00,51.6,43.0,29.82,SSE,152,7.0,10.0,72,0.00,,,0.00,125,weatherlink.com 1.10,2013-06-03 15:43:00,
2013-06-03 08:58:00,51.8,43.0,29.82,SE,128,7.0,9.0,72,0.00,,,0.00,142,weatherlink.com 1.10,2013-06-03 15:58:00,
2013-06-03 09:13:00,52.1,43.0,29.82,ESE,111,4.0,12.0,72,0.00,,,0.00,155,weatherlink.com 1.10,2013-06-03 16:13:00,
2013-06-03 09:28:00,52.2,43.0,29.83,SE,133,8.0,14.0,72,0.00,,,0.00,197,weatherlink.com 1.10,2013-06-03 16:28:00,
2013-06-03 09:43:00,52.6,44.0,29.83,ESE,112,5.0,12.0,72,0.00,,,0.00,204,weatherlink.com 1.10,2013-06-03 16:43:00,
2013-06-03 09:59:00,52.8,44.0,29.84,ESE,119,7.0,11.0,72,0.00,,,0.00,251,weatherlink.com 1.10,2013-06-03 16:59:00,
2013-06-03 10:14:00,53.5,45.0,29.84,SE,133,6.0,13.0,72,0.00,,,0.00,283,weatherlink.com 1.10,2013-06-03 17:14:00,
2013-06-03 10:29:00,54.4,46.0,29.84,SE,138,8.0,11.0,72,0.00,,,0.00,345,weatherlink.com 1.10,2013-06-03 17:29:00,
2013-06-03 10:44:00,55.2,46.0,29.84,SE,140,6.0,14.0,72,0.00,,,0.00,311,weatherlink.com 1.10,2013-06-03 17:44:00,
2013-06-03 10:59:00,55.8,47.0,29.85,ESE,114,4.0,13.0,72,0.00,,,0.00,357,weatherlink.com 1.10,2013-06-03 17:59:00,
2013-06-03 11:14:00,56.4,47.0,29.85,South,180,7.0,10.0,72,0.00,,,0.00,336,weatherlink.com 1.10,2013-06-03 18:14:00,
2013-06-03 11:29:00,56.6,48.0,29.86,SE,125,5.0,9.0,72,0.00,,,0.00,417,weatherlink.com 1.10,2013-06-03 18:29:00,
2013-06-03 11:44:00,57.7,49.0,29.86,SE,134,12.0,16.0,72,0.00,,,0.00,471,weatherlink.com 1.10,2013-06-03 18:44:00,
2013-06-03 11:59:00,58.5,49.0,29.86,SE,129,7.0,13.0,71,0.00,,,0.00,587,weatherlink.com 1.10,2013-06-03 18:59:00,
2013-06-03 12:14:00,60.2,51.0,29.86,South,190,4.0,14.0,71,0.00,,,0.00,833,weatherlink.com 1.10,2013-06-03 19:14:00,
2013-06-03 12:29:00,60.5,50.0,29.86,SE,137,15.0,18.0,69,0.00,,,0.00,867,weatherlink.com 1.10,2013-06-03 19:29:00,
2013-06-03 12:44:00,60.9,50.0,29.86,SE,141,9.0,17.0,68,0.00,,,0.00,962,weatherlink.com 1.10,2013-06-03 19:44:00,
2013-06-03 12:59:00,62.3,51.0,29.86,South,172,6.0,15.0,67,0.00,,,0.00,967,weatherlink.com 1.10,2013-06-03 19:59:00,
2013-06-03 13:14:00,62.1,51.0,29.86,ESE,123,7.0,16.0,66,0.00,,,0.00,1027,weatherlink.com 1.10,2013-06-03 20:14:00,
2013-06-03 13:29:00,62.7,51.0,29.87,SE,146,5.0,14.0,66,0.00,,,0.00,1034,weatherlink.com 1.10,2013-06-03 20:29:00,
2013-06-03 13:44:00,62.7,51.0,29.87,SE,126,10.0,17.0,65,0.00,,,0.00,830,weatherlink.com 1.10,2013-06-03 20:44:00,
2013-06-03 13:59:00,63.4,51.0,29.87,SE,127,7.0,13.0,65,0.00,,,0.00,663,weatherlink.com 1.10,2013-06-03 20:59:00,
2013-06-03 14:14:00,63.4,51.0,29.87,SSE,150,16.0,16.0,65,0.00,,,0.00,691,weatherlink.com 1.10,2013-06-03 21:14:00,
2013-06-03 14:29:00,63.0,51.0,29.87,ESE,119,5.0,13.0,65,0.00,,,0.00,715,weatherlink.com 1.10,2013-06-03 21:29:00,
2013-06-03 14:44:00,62.6,51.0,29.87,SSW,205,7.0,16.0,65,0.00,,,0.00,751,weatherlink.com 1.10,2013-06-03 21:44:00,
2013-06-03 14:59:00,62.2,51.0,29.87,South,173,5.0,14.0,66,0.00,,,0.00,598,weatherlink.com 1.10,2013-06-03 21:59:00,
2013-06-03 15:14:00,61.8,50.0,29.87,SE,126,8.0,15.0,66,0.00,,,0.00,613,weatherlink.com 1.10,2013-06-03 22:14:00,
2013-06-03 15:29:00,61.6,50.0,29.88,SSE,155,3.0,13.0,66,0.00,,,0.00,510,weatherlink.com 1.10,2013-06-03 22:29:00,
2013-06-03 15:44:00,62.2,51.0,29.87,SE,143,6.0,12.0,66,0.00,,,0.00,816,weatherlink.com 1.10,2013-06-03 22:44:00,
2013-06-03 15:59:00,63.4,51.0,29.87,South,175,5.0,11.0,65,0.00,,,0.00,649,weatherlink.com 1.10,2013-06-03 22:59:00,
2013-06-03 16:14:00,63.2,51.0,29.86,SSE,165,9.0,10.0,65,0.00,,,0.00,784,weatherlink.com 1.10,2013-06-03 23:14:00,
2013-06-03 16:29:00,63.8,51.0,29.86,South,179,4.0,11.0,64,0.00,,,0.00,717,weatherlink.com 1.10,2013-06-03 23:29:00,
2013-06-03 16:44:00,64.1,52.0,29.86,SE,127,5.0,9.0,64,0.00,,,0.00,686,weatherlink.com 1.10,2013-06-03 23:44:00,
2013-06-03 16:59:00,64.9,52.0,29.86,SE,136,5.0,9.0,63,0.00,,,0.00,610,weatherlink.com 1.10,2013-06-03 23:59:00,
2013-06-03 17:14:00,64.5,51.0,29.86,ESE,123,8.0,9.0,63,0.00,,,0.00,559,weatherlink.com 1.10,2013-06-04 00:14:00,
2013-06-03 17:29:00,63.2,51.0,29.86,SSE,158,6.0,8.0,64,0.00,,,0.00,420,weatherlink.com 1.10,2013-06-04 00:29:00,
2013-06-03 17:44:00,62.0,50.0,29.85,South,172,2.0,8.0,65,0.00,,,0.00,338,weatherlink.com 1.10,2013-06-04 00:44:00,
2013-06-03 17:59:00,62.3,50.0,29.85,South,171,6.0,8.0,65,0.00,,,0.00,443,weatherlink.com 1.10,2013-06-04 00:59:00,
2013-06-03 18:14:00,62.6,51.0,29.85,South,180,3.0,9.0,65,0.00,,,0.00,341,weatherlink.com 1.10,2013-06-04 01:14:00,
2013-06-03 18:30:00,62.0,50.0,29.85,SSE,157,5.0,9.0,65,0.00,,,0.00,323,weatherlink.com 1.10,2013-06-04 01:30:00,
2013-06-03 18:45:00,60.6,49.0,29.84,SSE,150,3.0,7.0,66,0.00,,,0.00,162,weatherlink.com 1.10,2013-06-04 01:45:00,
2013-06-03 19:00:00,58.9,48.0,29.85,SSE,154,6.0,9.0,67,0.00,,,0.00,107,weatherlink.com 1.10,2013-06-04 02:00:00,
2013-06-03 19:15:00,58.0,47.0,29.85,South,185,2.0,6.0,68,0.00,,,0.00,74,weatherlink.com 1.10,2013-06-04 02:15:00,
2013-06-03 19:30:00,57.4,47.0,29.86,South,173,2.0,5.0,69,0.00,,,0.00,49,weatherlink.com 1.10,2013-06-04 02:30:00,
2013-06-03 19:45:00,56.5,46.0,29.86,SE,129,0.0,4.0,69,0.00,,,0.00,30,weatherlink.com 1.10,2013-06-04 02:45:00,
2013-06-03 20:00:00,56.3,46.0,29.86,SE,135,3.0,3.0,69,0.00,,,0.00,14,weatherlink.com 1.10,2013-06-04 03:00:00,
2013-06-03 20:15:00,55.8,46.0,29.87,SSE,159,0.0,4.0,70,0.00,,,0.00,7,weatherlink.com 1.10,2013-06-04 03:15:00,
2013-06-03 20:30:00,55.2,46.0,29.87,SSE,162,0.0,3.0,70,0.00,,,0.00,0,weatherlink.com 1.10,2013-06-04 03:30:00,
2013-06-03 20:45:00,54.9,46.0,29.88,SSE,162,0.0,3.0,71,0.00,,,0.00,0,weatherlink.com 1.10,2013-06-04 03:45:00,
2013-06-03 21:00:00,54.8,46.0,29.88,SSE,161,2.0,4.0,71,0.00,,,0.00,0,weatherlink.com 1.10,2013-06-04 04:00:00,
2013-06-03 21:15:00,54.4,45.0,29.88,SE,144,1.0,7.0,71,0.00,,,0.00,0,weatherlink.com 1.10,2013-06-04 04:15:00,
2013-06-03 21:30:00,53.9,45.0,29.88,SE,144,1.0,5.0,72,0.00,,,0.00,0,weatherlink.com 1.10,2013-06-04 04:30:00,
2013-06-03 21:45:00,53.6,45.0,29.89,SE,131,3.0,5.0,72,0.00,,,0.00,0,weatherlink.com 1.10,2013-06-04 04:45:00,
2013-06-03 22:00:00,53.4,45.0,29.89,SE,144,3.0,5.0,72,0.00,,,0.00,0,weatherlink.com 1.10,2013-06-04 05:00:00,
2013-06-03 22:15:00,53.4,45.0,29.89,SSE,148,3.0,5.0,72,0.00,,,0.00,0,weatherlink.com 1.10,2013-06-04 05:15:00,
2013-06-03 22:30:00,53.3,44.0,29.89,SE,131,2.0,4.0,72,0.00,,,0.00,0,weatherlink.com 1.10,2013-06-04 05:30:00,
2013-06-03 22:45:00,53.3,44.0,29.89,SSE,157,1.0,4.0,72,0.00,,,0.00,0,weatherlink.com 1.10,2013-06-04 05:45:00,
2013-06-03 23:00:00,53.2,44.0,29.89,SSE,157,0.0,4.0,72,0.00,,,0.00,0,weatherlink.com 1.10,2013-06-04 06:00:00,
2013-06-03 23:15:00,53.3,44.0,29.89,SSE,157,0.0,2.0,72,0.00,,,0.00,0,weatherlink.com 1.10,2013-06-04 06:15:00,
2013-06-03 23:30:00,53.3,44.0,29.89,SSE,157,0.0,3.0,72,0.00,,,0.00,0,weatherlink.com 1.10,2013-06-04 06:30:00,
2013-06-03 23:45:00,53.3,44.0,29.89,SSE,157,0.0,1.0,72,0.00,,,0.00,0,weatherlink.com 1.10,2013-06-04 06:45:00,